createdAt,value
2023-03-22T00:01:25.098Z,99395.16
2023-03-22T00:11:30.688Z,99390.73
2023-03-22T00:21:36.371Z,99384.84
2023-03-22T00:31:42.251Z,99375.17
2023-03-22T00:41:48.052Z,99372.45
2023-03-22T00:51:54.921Z,99372.66
2023-03-22T01:02:00.807Z,99368.77
2023-03-22T01:12:06.899Z,99357.48
2023-03-22T01:22:12.793Z,99346.67
2023-03-22T01:32:18.536Z,99345.55
2023-03-22T01:42:24.936Z,99326.38
2023-03-22T01:52:30.921Z,99313.85
2023-03-22T02:02:37.063Z,99304.09
2023-03-22T02:12:52.761Z,99295.21
2023-03-22T02:23:37.196Z,99286.52
2023-03-22T02:34:06.837Z,99287.73
2023-03-22T02:44:23.618Z,99267.43
2023-03-22T02:54:29.801Z,99249.33
2023-03-22T03:04:39.703Z,99252.15
2023-03-22T03:14:45.615Z,99240.45
2023-03-22T03:24:59.164Z,99240.63
2023-03-22T03:35:10.873Z,99227.28
2023-03-22T03:45:18.129Z,99228.79
2023-03-22T03:55:23.062Z,99233.95
2023-03-22T04:05:28.732Z,99233.70
2023-03-22T04:15:34.539Z,99230.21
2023-03-22T04:25:41.923Z,99226.96
2023-03-22T04:35:47.637Z,99227.82
2023-03-22T04:45:55.020Z,99228.52
2023-03-22T04:56:02.698Z,99228.02
2023-03-22T05:06:10.393Z,99226.48
2023-03-22T05:16:16.145Z,99228.58
2023-03-22T05:26:24.319Z,99227.30
2023-03-22T05:36:30.935Z,99232.83
2023-03-22T05:46:36.635Z,99228.19
2023-03-22T05:56:44.226Z,99227.85
2023-03-22T06:06:50.638Z,99235.06
2023-03-22T06:16:56.346Z,99243.53
2023-03-22T06:27:02.207Z,99240.23
2023-03-22T06:37:07.966Z,99245.84
2023-03-22T06:47:14.047Z,99238.48
2023-03-22T06:57:19.752Z,99228.41
2023-03-22T07:07:25.522Z,99229.82
2023-03-22T07:17:31.125Z,99228.44
2023-03-22T07:27:37.417Z,99215.33
2023-03-22T07:37:43.234Z,99196.67
2023-03-22T07:47:49.010Z,99184.64
2023-03-22T07:57:55.162Z,99182.91
2023-03-22T08:08:00.854Z,99178.88
2023-03-22T08:18:08.714Z,99185.75
2023-03-22T08:28:14.765Z,99187.25
2023-03-22T08:38:20.978Z,99182.71
2023-03-22T08:48:29.187Z,99186.81
2023-03-22T08:58:34.998Z,99191.30
2023-03-22T09:08:41.518Z,99176.86
2023-03-22T09:18:47.277Z,99164.04
2023-03-22T09:28:53.007Z,99149.60
2023-03-22T09:38:59.432Z,99147.15
2023-03-22T09:49:10.875Z,99153.84
2023-03-22T09:59:23.473Z,99146.09
2023-03-22T10:09:35.488Z,99148.23
2023-03-22T10:19:49.972Z,99145.20
2023-03-22T10:30:00.915Z,99139.63
2023-03-22T10:40:13.703Z,99132.55
2023-03-22T10:50:22.698Z,99121.19
2023-03-22T11:00:29.724Z,99116.33
2023-03-22T11:10:36.142Z,99101.95
2023-03-22T11:20:52.979Z,99087.73
2023-03-22T11:31:05.925Z,99079.30
2023-03-22T11:41:21.269Z,99059.55
2023-03-22T11:51:33.451Z,99047.39
2023-03-22T12:01:43.083Z,99043.05
2023-03-22T12:11:51.049Z,99037.52
2023-03-22T12:21:58.278Z,99034.23
2023-03-22T12:32:08.451Z,99029.13
2023-03-22T12:42:23.052Z,99018.30
2023-03-22T12:52:45.250Z,99004.45
2023-03-22T13:02:58.129Z,98997.56
2023-03-22T13:13:18.231Z,98992.24
2023-03-22T13:23:32.218Z,98983.23
2023-03-22T13:33:39.214Z,98974.54
2023-03-22T13:43:50.643Z,98966.89
2023-03-22T13:54:02.457Z,98950.96
2023-03-22T14:04:12.349Z,98942.98
2023-03-22T14:14:24.642Z,98937.91
